Wetterdaten: Woche 06.07.15 - 12.07.15 (KW28)
Datum Zeit Temp. A. Feuchte A. Luftdruck Regen Wind Richtung Sonnenschein ET UV Solar Taupunkt Windchill Windben Empfang
06.07.2015 00:00 19,8 C 75 % 1012,3 hPa 0,0 l/m 0,0 km/h (0 Bft) N 0,00 h 0,000 mm 0,0 UV-I 0 W/m 15,2 C 19,8 C 0,0 km/h (0 Bft) 0,00 %
06.07.2015 01:00 18,6 C 82 % 1012,6 hPa 0,0 l/m 0,0 km/h (0 Bft) N 0,00 h 0,000 mm 0,0 UV-I 0 W/m 15,4 C 18,6 C 0,0 km/h (0 Bft) 0,00 %
06.07.2015 02:00 17,9 C 84 % 1013,2 hPa 0,0 l/m 0,0 km/h (0 Bft) N 0,00 h 0,000 mm 0,0 UV-I 0 W/m 15,2 C 17,9 C 0,0 km/h (0 Bft) 0,00 %
06.07.2015 03:00 17,7 C 85 % 1013,8 hPa 0,0 l/m 0,0 km/h (0 Bft) N 0,00 h 0,000 mm 0,0 UV-I 0 W/m 15,2 C 17,7 C 0,0 km/h (0 Bft) 0,00 %
06.07.2015 04:00 17,7 C 85 % 1013,9 hPa 0,0 l/m 0,0 km/h (0 Bft) N 0,00 h 0,000 mm 0,0 UV-I 0 W/m 15,1 C 17,7 C 0,0 km/h (0 Bft) 0,00 %
06.07.2015 05:00 18,3 C 80 % 1014,4 hPa 0,0 l/m 0,8 km/h (0 Bft) W-NW 0,00 h 0,000 mm 0,0 UV-I 22 W/m 14,7 C 18,3 C 2,0 km/h (1 Bft) 0,00 %
06.07.2015 06:00 22,0 C 67 % 1015,3 hPa 0,0 l/m 5,0 km/h (1 Bft) NW 1,00 h 0,000 mm 1,0 UV-I 154 W/m 15,5 C 21,7 C 8,3 km/h (2 Bft) 0,00 %
06.07.2015 07:00 24,9 C 61 % 1016,8 hPa 0,0 l/m 9,9 km/h (2 Bft) W-NW 0,92 h 0,000 mm 1,0 UV-I 245 W/m 16,7 C 24,1 C 13,9 km/h (3 Bft) 0,00 %
06.07.2015 08:00 22,1 C 76 % 1018,6 hPa 0,0 l/m 7,9 km/h (2 Bft) O-NO 0,00 h 0,000 mm 1,1 UV-I 167 W/m 17,6 C 21,3 C 12,2 km/h (2 Bft) 0,00 %
06.07.2015 09:00 22,6 C 70 % 1019,0 hPa 0,0 l/m 3,5 km/h (1 Bft) N-NO 0,00 h 0,000 mm 1,2 UV-I 240 W/m 16,9 C 22,5 C 6,3 km/h (2 Bft) 0,00 %
06.07.2015 10:00 23,5 C 66 % 1019,0 hPa 0,0 l/m 4,4 km/h (1 Bft) W-SW 0,17 h 0,000 mm 2,3 UV-I 427 W/m 16,9 C 23,5 C 7,6 km/h (2 Bft) 0,00 %
06.07.2015 11:00 26,2 C 58 % 1018,3 hPa 0,0 l/m 3,8 km/h (1 Bft) NO 0,50 h 0,000 mm 3,0 UV-I 518 W/m 17,3 C 26,0 C 7,6 km/h (2 Bft) 0,00 %
06.07.2015 12:00 27,8 C 55 % 1017,8 hPa 0,0 l/m 1,5 km/h (1 Bft) O-SO 0,75 h 0,000 mm 3,3 UV-I 636 W/m 17,7 C 27,8 C 4,0 km/h (1 Bft) 0,00 %
06.07.2015 13:00 29,2 C 52 % 1017,3 hPa 0,0 l/m 1,7 km/h (1 Bft) W-NW 0,83 h 0,000 mm 4,1 UV-I 904 W/m 18,1 C 29,1 C 3,6 km/h (1 Bft) 0,00 %
06.07.2015 14:00 29,8 C 48 % 1017,0 hPa 0,0 l/m 2,1 km/h (1 Bft) W 0,75 h 0,000 mm 4,4 UV-I 846 W/m 17,6 C 29,8 C 3,0 km/h (1 Bft) 0,00 %
06.07.2015 15:00 30,6 C 46 % 1016,5 hPa 0,0 l/m 1,1 km/h (1 Bft) W-SW 0,75 h 0,000 mm 3,2 UV-I 753 W/m 17,5 C 30,6 C 2,6 km/h (1 Bft) 0,00 %
06.07.2015 16:00 30,4 C 44 % 1016,1 hPa 0,0 l/m 0,4 km/h (0 Bft) SW 0,83 h 0,000 mm 2,5 UV-I 761 W/m 16,8 C 30,4 C 1,7 km/h (1 Bft) 0,00 %
06.07.2015 17:00 31,0 C 42 % 1015,5 hPa 0,0 l/m 0,3 km/h (0 Bft) N-NW 1,00 h 0,000 mm 1,9 UV-I 719 W/m 16,6 C 31,0 C 1,0 km/h (0 Bft) 0,00 %
06.07.2015 18:00 31,3 C 41 % 1015,0 hPa 0,0 l/m 0,2 km/h (0 Bft) N 1,00 h 0,000 mm 1,0 UV-I 535 W/m 16,5 C 31,3 C 1,3 km/h (1 Bft) 0,00 %
06.07.2015 19:00 30,5 C 44 % 1015,0 hPa 0,0 l/m 0,0 km/h (0 Bft) N 1,00 h 0,000 mm 1,0 UV-I 230 W/m 16,9 C 30,5 C 0,3 km/h (0 Bft) 0,00 %
06.07.2015 20:00 28,8 C 52 % 1015,2 hPa 0,0 l/m 0,0 km/h (0 Bft) N 0,08 h 0,000 mm 0,0 UV-I 29 W/m 17,8 C 28,8 C 0,0 km/h (0 Bft) 0,00 %
06.07.2015 21:00 24,9 C 69 % 1015,9 hPa 0,0 l/m 0,0 km/h (0 Bft) N 0,00 h 0,000 mm 0,0 UV-I 0 W/m 18,6 C 24,9 C 0,0 km/h (0 Bft) 0,00 %
06.07.2015 22:00 22,9 C 77 % 1016,4 hPa 0,0 l/m 0,0 km/h (0 Bft) N 0,00 h 0,000 mm 0,0 UV-I 0 W/m 18,6 C 22,9 C 0,0 km/h (0 Bft) 0,00 %
06.07.2015 23:00 21,7 C 81 % 1016,6 hPa 0,0 l/m 0,0 km/h (0 Bft) N 0,00 h 0,000 mm 0,0 UV-I 0 W/m 18,3 C 21,7 C 0,0 km/h (0 Bft) 0,00 %
07.07.2015 00:00 20,7 C 85 % 1016,7 hPa 0,0 l/m 0,0 km/h (0 Bft) N 0,00 h 0,000 mm 0,0 UV-I 0 W/m 18,1 C 20,7 C 0,0 km/h (0 Bft) 0,00 %
07.07.2015 01:00 20,1 C 88 % 1016,6 hPa 0,0 l/m 0,0 km/h (0 Bft) N 0,00 h 0,000 mm 0,0 UV-I 0 W/m 17,9 C 20,1 C 0,0 km/h (0 Bft) 0,00 %
07.07.2015 02:00 19,4 C 89 % 1016,7 hPa 0,0 l/m 0,0 km/h (0 Bft) N 0,00 h 0,000 mm 0,0 UV-I 0 W/m 17,6 C 19,4 C 0,0 km/h (0 Bft) 0,00 %
07.07.2015 03:00 18,9 C 91 % 1016,4 hPa 0,0 l/m 0,0 km/h (0 Bft) N 0,00 h 0,000 mm 0,0 UV-I 0 W/m 17,4 C 18,9 C 0,0 km/h (0 Bft) 0,00 %
07.07.2015 04:00 18,3 C 92 % 1016,1 hPa 0,0 l/m 0,0 km/h (0 Bft) N 0,00 h 0,000 mm 0,0 UV-I 0 W/m 17,0 C 18,3 C 0,0 km/h (0 Bft) 0,00 %
07.07.2015 05:00 18,1 C 93 % 1016,0 hPa 0,0 l/m 0,0 km/h (0 Bft) N 0,00 h 0,000 mm 0,0 UV-I 22 W/m 17,0 C 18,1 C 0,0 km/h (0 Bft) 0,00 %
07.07.2015 06:00 20,8 C 82 % 1014,6 hPa 0,0 l/m 0,0 km/h (0 Bft) N 1,00 h 0,000 mm 1,0 UV-I 159 W/m 17,6 C 20,8 C 0,0 km/h (0 Bft) 0,00 %
07.07.2015 07:00 23,3 C 73 % 1014,1 hPa 0,0 l/m 0,3 km/h (0 Bft) O-NO 1,00 h 0,000 mm 1,0 UV-I 345 W/m 18,2 C 23,3 C 1,7 km/h (1 Bft) 0,00 %
07.07.2015 08:00 24,7 C 65 % 1014,2 hPa 0,0 l/m 4,0 km/h (1 Bft) NO 1,00 h 0,000 mm 1,6 UV-I 449 W/m 17,8 C 24,7 C 7,3 km/h (2 Bft) 0,00 %
07.07.2015 09:00 26,8 C 57 % 1013,3 hPa 0,0 l/m 2,6 km/h (1 Bft) O-NO 1,00 h 0,000 mm 2,3 UV-I 559 W/m 17,7 C 26,8 C 4,3 km/h (1 Bft) 0,00 %
07.07.2015 10:00 28,8 C 53 % 1012,3 hPa 0,0 l/m 1,8 km/h (1 Bft) NO 1,00 h 0,000 mm 3,4 UV-I 688 W/m 18,2 C 28,8 C 5,3 km/h (1 Bft) 0,00 %
07.07.2015 11:00 29,8 C 49 % 1011,5 hPa 0,0 l/m 2,3 km/h (1 Bft) NO 1,00 h 0,000 mm 4,7 UV-I 787 W/m 18,0 C 29,8 C 5,0 km/h (1 Bft) 0,00 %
07.07.2015 12:00 30,6 C 45 % 1010,8 hPa 0,0 l/m 2,8 km/h (1 Bft) O-SO 1,00 h 0,000 mm 5,4 UV-I 861 W/m 17,4 C 30,6 C 5,3 km/h (1 Bft) 0,00 %
07.07.2015 13:00 31,8 C 42 % 1009,8 hPa 0,0 l/m 2,3 km/h (1 Bft) O 1,00 h 0,000 mm 5,1 UV-I 921 W/m 17,2 C 31,8 C 3,3 km/h (1 Bft) 0,00 %
07.07.2015 14:00 33,3 C 37 % 1008,8 hPa 0,0 l/m 1,6 km/h (1 Bft) O-NO 1,00 h 0,000 mm 5,0 UV-I 959 W/m 16,7 C 33,3 C 3,3 km/h (1 Bft) 0,00 %
07.07.2015 15:00 34,1 C 33 % 1007,9 hPa 0,0 l/m 1,8 km/h (1 Bft) O-NO 1,00 h 0,000 mm 3,9 UV-I 948 W/m 15,6 C 34,1 C 3,6 km/h (1 Bft) 0,00 %
07.07.2015 16:00 33,8 C 36 % 1007,0 hPa 0,0 l/m 4,2 km/h (1 Bft) O-SO 1,00 h 0,000 mm 2,9 UV-I 894 W/m 16,6 C 33,8 C 6,9 km/h (2 Bft) 0,00 %
07.07.2015 17:00 34,0 C 36 % 1006,1 hPa 0,0 l/m 1,9 km/h (1 Bft) O 1,00 h 0,000 mm 1,7 UV-I 702 W/m 16,7 C 34,0 C 3,3 km/h (1 Bft) 0,00 %
07.07.2015 18:00 34,1 C 39 % 1005,5 hPa 0,0 l/m 2,5 km/h (1 Bft) O 1,00 h 0,000 mm 1,0 UV-I 578 W/m 18,1 C 34,1 C 4,3 km/h (1 Bft) 0,00 %
07.07.2015 19:00 32,3 C 44 % 1004,9 hPa 0,0 l/m 1,7 km/h (1 Bft) O 0,92 h 0,000 mm 1,0 UV-I 199 W/m 18,3 C 32,3 C 3,3 km/h (1 Bft) 0,00 %
07.07.2015 20:00 30,5 C 51 % 1004,3 hPa 0,0 l/m 0,4 km/h (0 Bft) O-SO 0,33 h 0,000 mm 0,0 UV-I 46 W/m 19,0 C 30,5 C 1,3 km/h (1 Bft) 0,00 %
07.07.2015 21:00 27,3 C 65 % 1004,3 hPa 0,0 l/m 0,0 km/h (0 Bft) N 0,00 h 0,000 mm 0,0 UV-I 0 W/m 20,2 C 27,3 C 0,0 km/h (0 Bft) 0,00 %
07.07.2015 22:00 26,4 C 59 % 1003,8 hPa 0,0 l/m 0,3 km/h (0 Bft) W-NW 0,00 h 0,000 mm 0,0 UV-I 0 W/m 17,5 C 26,4 C 1,0 km/h (0 Bft) 0,00 %
07.07.2015 23:00 26,2 C 59 % 1003,0 hPa 0,0 l/m 0,0 km/h (0 Bft) N 0,00 h 0,000 mm 0,0 UV-I 0 W/m 17,5 C 26,2 C 0,0 km/h (0 Bft) 0,00 %
08.07.2015 00:00 24,1 C 66 % 1004,0 hPa 0,0 l/m 4,8 km/h (1 Bft) W-SW 0,00 h 0,000 mm 0,0 UV-I 0 W/m 17,2 C 23,7 C 6,6 km/h (2 Bft) 0,00 %
08.07.2015 01:00 25,4 C 49 % 1006,7 hPa 0,0 l/m 4,2 km/h (1 Bft) NO 0,00 h 0,000 mm 0,0 UV-I 0 W/m 13,7 C 25,1 C 7,6 km/h (2 Bft) 0,00 %
08.07.2015 02:00 23,1 C 60 % 1005,5 hPa 0,0 l/m 2,2 km/h (1 Bft) NO 0,00 h 0,000 mm 0,0 UV-I 0 W/m 14,9 C 22,9 C 5,0 km/h (1 Bft) 0,00 %
08.07.2015 03:00 22,6 C 59 % 1005,9 hPa 0,0 l/m 0,6 km/h (0 Bft) O 0,00 h 0,000 mm 0,0 UV-I 0 W/m 14,1 C 22,6 C 2,0 km/h (1 Bft) 0,00 %
08.07.2015 04:00 21,6 C 64 % 1007,4 hPa 0,0 l/m 2,0 km/h (1 Bft) W-SW 0,00 h 0,000 mm 0,0 UV-I 0 W/m 14,4 C 21,6 C 4,6 km/h (1 Bft) 0,00 %
08.07.2015 05:00 21,3 C 69 % 1008,8 hPa 0,3 l/m 3,6 km/h (1 Bft) W-SW 0,00 h 0,000 mm 0,0 UV-I 1 W/m 15,2 C 21,2 C 6,3 km/h (2 Bft) 0,00 %
08.07.2015 06:00 21,2 C 71 % 1009,0 hPa 0,0 l/m 3,8 km/h (1 Bft) W-SW 0,33 h 0,000 mm 1,0 UV-I 117 W/m 15,8 C 21,0 C 6,3 km/h (2 Bft) 0,00 %
08.07.2015 07:00 23,1 C 63 % 1008,3 hPa 0,0 l/m 3,2 km/h (1 Bft) W-SW 1,00 h 0,000 mm 1,0 UV-I 383 W/m 15,7 C 23,1 C 6,0 km/h (2 Bft) 0,00 %
08.07.2015 08:00 23,7 C 55 % 1008,4 hPa 0,0 l/m 4,5 km/h (1 Bft) NW 0,83 h 0,000 mm 1,5 UV-I 392 W/m 14,0 C 23,4 C 7,6 km/h (2 Bft) 0,00 %
08.07.2015 09:00 22,8 C 58 % 1008,4 hPa 0,0 l/m 1,7 km/h (1 Bft) W 0,08 h 0,000 mm 1,0 UV-I 196 W/m 14,0 C 22,7 C 3,6 km/h (1 Bft) 0,00 %
08.07.2015 10:00 21,5 C 66 % 1008,4 hPa 0,0 l/m 1,1 km/h (1 Bft) W-SW 0,00 h 0,000 mm 1,2 UV-I 209 W/m 14,8 C 21,5 C 2,3 km/h (1 Bft) 0,00 %
08.07.2015 11:00 23,2 C 64 % 1008,1 hPa 0,0 l/m 1,8 km/h (1 Bft) W 0,33 h 0,000 mm 2,0 UV-I 407 W/m 15,9 C 23,1 C 2,6 km/h (1 Bft) 0,00 %
08.07.2015 12:00 24,3 C 65 % 1007,5 hPa 0,0 l/m 2,7 km/h (1 Bft) W-SW 0,17 h 0,000 mm 2,5 UV-I 325 W/m 17,1 C 24,2 C 5,3 km/h (1 Bft) 0,00 %
08.07.2015 13:00 22,1 C 67 % 1008,5 hPa 0,0 l/m 2,6 km/h (1 Bft) W-SW 0,00 h 0,000 mm 1,0 UV-I 98 W/m 15,7 C 22,0 C 6,0 km/h (2 Bft) 0,00 %
08.07.2015 14:00 17,3 C 76 % 1010,6 hPa 0,0 l/m 5,1 km/h (1 Bft) W-SW 0,00 h 0,000 mm 1,0 UV-I 62 W/m 13,0 C 16,8 C 7,6 km/h (2 Bft) 0,00 %
08.07.2015 15:00 15,7 C 88 % 1011,5 hPa 2,4 l/m 3,2 km/h (1 Bft) W-SW 0,00 h 0,000 mm 1,0 UV-I 140 W/m 13,6 C 15,4 C 6,3 km/h (2 Bft) 0,00 %
08.07.2015 16:00 15,4 C 92 % 1012,1 hPa 0,3 l/m 0,4 km/h (0 Bft) O-NO 0,00 h 0,000 mm 1,0 UV-I 63 W/m 14,0 C 15,4 C 1,7 km/h (1 Bft) 0,00 %
08.07.2015 17:00 15,5 C 92 % 1011,8 hPa 0,0 l/m 0,1 km/h (0 Bft) N 0,00 h 0,000 mm 0,0 UV-I 63 W/m 14,2 C 15,5 C 0,7 km/h (0 Bft) 0,00 %
08.07.2015 18:00 16,0 C 90 % 1011,6 hPa 0,0 l/m 0,0 km/h (0 Bft) N 0,00 h 0,000 mm 0,0 UV-I 68 W/m 14,3 C 16,0 C 0,3 km/h (0 Bft) 0,00 %
08.07.2015 19:00 16,3 C 88 % 1011,4 hPa 0,0 l/m 0,1 km/h (0 Bft) N 0,50 h 0,000 mm 0,0 UV-I 134 W/m 14,3 C 16,3 C 0,7 km/h (0 Bft) 0,00 %
08.07.2015 20:00 17,1 C 84 % 1011,7 hPa 0,0 l/m 0,5 km/h (0 Bft) W-SW 0,00 h 0,000 mm 0,0 UV-I 4 W/m 14,4 C 17,1 C 1,7 km/h (1 Bft) 0,00 %
08.07.2015 21:00 16,1 C 87 % 1012,6 hPa 0,0 l/m 0,2 km/h (0 Bft) N 0,00 h 0,000 mm 0,0 UV-I 0 W/m 14,0 C 16,1 C 1,7 km/h (1 Bft) 0,00 %
08.07.2015 22:00 15,3 C 90 % 1013,2 hPa 0,0 l/m 0,3 km/h (0 Bft) NW 0,00 h 0,000 mm 0,0 UV-I 0 W/m 13,6 C 15,3 C 0,7 km/h (0 Bft) 0,00 %
08.07.2015 23:00 14,7 C 93 % 1013,5 hPa 0,0 l/m 0,0 km/h (0 Bft) N 0,00 h 0,000 mm 0,0 UV-I 0 W/m 13,5 C 14,7 C 0,0 km/h (0 Bft) 0,00 %
09.07.2015 00:00 14,5 C 93 % 1013,5 hPa 0,0 l/m 0,2 km/h (0 Bft) N 0,00 h 0,000 mm 0,0 UV-I 0 W/m 13,3 C 14,5 C 1,3 km/h (1 Bft) 0,00 %
09.07.2015 01:00 15,0 C 91 % 1013,6 hPa 0,0 l/m 0,8 km/h (0 Bft) W-SW 0,00 h 0,000 mm 0,0 UV-I 0 W/m 13,6 C 15,0 C 2,0 km/h (1 Bft) 0,00 %
09.07.2015 02:00 15,2 C 87 % 1013,6 hPa 0,0 l/m 1,1 km/h (0 Bft) W 0,00 h 0,000 mm 0,0 UV-I 0 W/m 13,1 C 15,2 C 3,0 km/h (1 Bft) 0,00 %
09.07.2015 03:00 15,0 C 82 % 1013,6 hPa 0,0 l/m 1,4 km/h (1 Bft) W-NW 0,00 h 0,000 mm 0,0 UV-I 0 W/m 11,9 C 15,0 C 3,7 km/h (1 Bft) 0,00 %
09.07.2015 04:00 14,9 C 83 % 1013,9 hPa 0,0 l/m 0,8 km/h (0 Bft) NO 0,00 h 0,000 mm 0,0 UV-I 0 W/m 12,0 C 14,9 C 2,7 km/h (1 Bft) 0,00 %
09.07.2015 05:00 14,4 C 82 % 1014,5 hPa 0,0 l/m 1,4 km/h (1 Bft) W-SW 0,00 h 0,000 mm 0,0 UV-I 10 W/m 11,4 C 14,4 C 3,3 km/h (1 Bft) 0,00 %
09.07.2015 06:00 15,1 C 79 % 1014,7 hPa 0,0 l/m 0,7 km/h (0 Bft) W-SW 0,42 h 0,000 mm 1,0 UV-I 95 W/m 11,5 C 15,1 C 3,0 km/h (1 Bft) 0,00 %
09.07.2015 07:00 16,6 C 71 % 1014,7 hPa 0,0 l/m 2,9 km/h (1 Bft) NO 0,92 h 0,000 mm 1,0 UV-I 353 W/m 11,3 C 16,5 C 5,3 km/h (1 Bft) 0,00 %
09.07.2015 08:00 18,6 C 62 % 1015,1 hPa 0,0 l/m 6,8 km/h (2 Bft) W-SW 1,00 h 0,000 mm 1,7 UV-I 488 W/m 11,3 C 17,8 C 10,2 km/h (2 Bft) 0,00 %
09.07.2015 09:00 19,4 C 57 % 1015,3 hPa 0,0 l/m 3,8 km/h (1 Bft) N 0,92 h 0,000 mm 2,0 UV-I 422 W/m 10,7 C 19,3 C 7,3 km/h (2 Bft) 0,00 %
09.07.2015 10:00 19,3 C 55 % 1015,2 hPa 0,0 l/m 3,3 km/h (1 Bft) W 0,25 h 0,000 mm 2,2 UV-I 321 W/m 10,0 C 19,1 C 6,3 km/h (2 Bft) 0,00 %
09.07.2015 11:00 19,0 C 56 % 1015,4 hPa 0,0 l/m 5,4 km/h (1 Bft) W-SW 0,17 h 0,000 mm 2,0 UV-I 247 W/m 9,9 C 18,4 C 8,9 km/h (2 Bft) 0,00 %
09.07.2015 12:00 16,8 C 64 % 1016,2 hPa 0,0 l/m 3,8 km/h (1 Bft) W-NW 0,50 h 0,000 mm 1,4 UV-I 593 W/m 9,7 C 16,6 C 7,9 km/h (2 Bft) 0,00 %
09.07.2015 13:00 18,2 C 60 % 1015,6 hPa 0,0 l/m 3,1 km/h (1 Bft) W 0,75 h 0,000 mm 4,1 UV-I 789 W/m 10,3 C 18,0 C 5,6 km/h (1 Bft) 0,00 %
09.07.2015 14:00 20,6 C 53 % 1014,9 hPa 0,0 l/m 4,5 km/h (1 Bft) W-NW 0,17 h 0,000 mm 3,3 UV-I 375 W/m 10,6 C 20,4 C 7,9 km/h (2 Bft) 0,00 %
09.07.2015 15:00 17,9 C 69 % 1016,4 hPa 0,3 l/m 5,1 km/h (1 Bft) S 0,00 h 0,000 mm 2,1 UV-I 235 W/m 12,0 C 17,4 C 9,3 km/h (2 Bft) 0,00 %
09.07.2015 16:00 15,8 C 72 % 1017,5 hPa 0,0 l/m 4,2 km/h (1 Bft) W-SW 0,00 h 0,000 mm 1,4 UV-I 130 W/m 10,7 C 15,2 C 7,3 km/h (2 Bft) 0,00 %
09.07.2015 17:00 16,1 C 71 % 1017,5 hPa 0,0 l/m 1,4 km/h (1 Bft) NW 0,00 h 0,000 mm 1,0 UV-I 83 W/m 10,8 C 16,1 C 3,3 km/h (1 Bft) 0,00 %
09.07.2015 18:00 15,3 C 75 % 1018,4 hPa 1,2 l/m 1,7 km/h (1 Bft) SW 0,08 h 0,000 mm 1,0 UV-I 110 W/m 10,8 C 15,3 C 3,3 km/h (1 Bft) 0,00 %
09.07.2015 19:00 13,4 C 86 % 1018,9 hPa 0,0 l/m 0,3 km/h (0 Bft) N-NW 0,00 h 0,000 mm 1,0 UV-I 34 W/m 11,1 C 13,4 C 1,7 km/h (1 Bft) 0,00 %
09.07.2015 20:00 13,8 C 83 % 1019,4 hPa 0,0 l/m 0,9 km/h (0 Bft) W-SW 0,00 h 0,000 mm 0,0 UV-I 11 W/m 11,0 C 13,8 C 2,3 km/h (1 Bft) 0,00 %
09.07.2015 21:00 13,2 C 83 % 1020,4 hPa 0,0 l/m 0,6 km/h (0 Bft) N 0,00 h 0,000 mm 0,0 UV-I 0 W/m 10,4 C 13,2 C 2,0 km/h (1 Bft) 0,00 %
09.07.2015 22:00 12,4 C 86 % 1021,1 hPa 0,0 l/m 0,0 km/h (0 Bft) N 0,00 h 0,000 mm 0,0 UV-I 0 W/m 10,2 C 12,4 C 0,3 km/h (0 Bft) 0,00 %
09.07.2015 23:00 12,2 C 88 % 1021,7 hPa 0,0 l/m 0,5 km/h (0 Bft) W 0,00 h 0,000 mm 0,0 UV-I 0 W/m 10,3 C 12,2 C 2,0 km/h (1 Bft) 0,00 %
10.07.2015 00:00 12,1 C 88 % 1022,1 hPa 0,0 l/m 0,2 km/h (0 Bft) N 0,00 h 0,000 mm 0,0 UV-I 0 W/m 10,1 C 12,1 C 1,3 km/h (1 Bft) 0,00 %
10.07.2015 01:00 11,4 C 89 % 1022,3 hPa 0,0 l/m 0,1 km/h (0 Bft) N 0,00 h 0,000 mm 0,0 UV-I 0 W/m 9,7 C 11,4 C 1,0 km/h (0 Bft) 0,00 %
10.07.2015 02:00 10,7 C 92 % 1022,6 hPa 0,0 l/m 0,0 km/h (0 Bft) N 0,00 h 0,000 mm 0,0 UV-I 0 W/m 9,5 C 10,7 C 0,3 km/h (0 Bft) 0,00 %
10.07.2015 03:00 10,4 C 92 % 1022,4 hPa 0,0 l/m 0,0 km/h (0 Bft) N 0,00 h 0,000 mm 0,0 UV-I 0 W/m 9,2 C 10,4 C 0,0 km/h (0 Bft) 0,00 %
10.07.2015 04:00 9,9 C 91 % 1022,4 hPa 0,0 l/m 0,0 km/h (0 Bft) N 0,00 h 0,000 mm 0,0 UV-I 0 W/m 8,5 C 9,9 C 0,0 km/h (0 Bft) 0,00 %
10.07.2015 05:00 9,7 C 91 % 1022,6 hPa 0,0 l/m 0,0 km/h (0 Bft) N 0,42 h 0,000 mm 0,0 UV-I 29 W/m 8,3 C 9,7 C 0,0 km/h (0 Bft) 0,00 %
10.07.2015 06:00 12,1 C 80 % 1022,6 hPa 0,0 l/m 0,1 km/h (0 Bft) N 1,00 h 0,000 mm 1,0 UV-I 201 W/m 8,6 C 12,1 C 0,3 km/h (0 Bft) 0,00 %
10.07.2015 07:00 15,0 C 67 % 1022,3 hPa 0,0 l/m 0,9 km/h (0 Bft) W-SW 1,00 h 0,000 mm 1,0 UV-I 375 W/m 8,8 C 15,0 C 2,3 km/h (1 Bft) 0,00 %
10.07.2015 08:00 16,5 C 58 % 1022,2 hPa 0,0 l/m 2,5 km/h (1 Bft) W-SW 1,00 h 0,000 mm 1,5 UV-I 449 W/m 8,3 C 16,5 C 5,3 km/h (1 Bft) 0,00 %
10.07.2015 09:00 18,3 C 53 % 1021,6 hPa 0,0 l/m 2,0 km/h (1 Bft) W-NW 1,00 h 0,000 mm 2,3 UV-I 534 W/m 8,6 C 18,3 C 5,0 km/h (1 Bft) 0,00 %
10.07.2015 10:00 20,3 C 47 % 1021,0 hPa 0,0 l/m 1,4 km/h (1 Bft) O-NO 0,75 h 0,000 mm 3,5 UV-I 571 W/m 8,6 C 20,2 C 2,7 km/h (1 Bft) 0,00 %
10.07.2015 11:00 20,4 C 44 % 1020,8 hPa 0,0 l/m 4,2 km/h (1 Bft) O-NO 0,75 h 0,000 mm 3,5 UV-I 656 W/m 7,6 C 20,1 C 7,6 km/h (2 Bft) 0,00 %
10.07.2015 12:00 20,8 C 42 % 1020,3 hPa 0,0 l/m 3,3 km/h (1 Bft) SW 1,00 h 0,000 mm 5,5 UV-I 815 W/m 7,4 C 20,8 C 6,6 km/h (2 Bft) 0,00 %
10.07.2015 13:00 21,9 C 41 % 1019,5 hPa 0,0 l/m 2,5 km/h (1 Bft) NW 1,00 h 0,000 mm 5,2 UV-I 875 W/m 8,1 C 21,8 C 5,3 km/h (1 Bft) 0,00 %
10.07.2015 14:00 22,4 C 40 % 1019,0 hPa 0,0 l/m 3,2 km/h (1 Bft) W-NW 1,00 h 0,000 mm 5,0 UV-I 890 W/m 8,0 C 22,3 C 5,3 km/h (1 Bft) 0,00 %
10.07.2015 15:00 22,8 C 37 % 1018,7 hPa 0,0 l/m 4,2 km/h (1 Bft) SW 1,00 h 0,000 mm 4,0 UV-I 889 W/m 7,3 C 22,7 C 6,9 km/h (2 Bft) 0,00 %
10.07.2015 16:00 23,3 C 34 % 1018,3 hPa 0,0 l/m 2,6 km/h (1 Bft) O-NO 1,00 h 0,000 mm 3,0 UV-I 850 W/m 6,4 C 23,2 C 5,3 km/h (1 Bft) 0,00 %
10.07.2015 17:00 23,3 C 33 % 1017,7 hPa 0,0 l/m 2,3 km/h (1 Bft) W 1,00 h 0,000 mm 1,6 UV-I 738 W/m 6,0 C 23,3 C 4,3 km/h (1 Bft) 0,00 %
10.07.2015 18:00 23,2 C 32 % 1017,6 hPa 0,0 l/m 3,0 km/h (1 Bft) W-SW 1,00 h 0,000 mm 1,0 UV-I 532 W/m 5,6 C 23,1 C 5,0 km/h (1 Bft) 0,00 %
10.07.2015 19:00 22,7 C 36 % 1017,4 hPa 0,0 l/m 0,6 km/h (0 Bft) N 0,67 h 0,000 mm 1,0 UV-I 165 W/m 6,9 C 22,7 C 1,0 km/h (0 Bft) 0,00 %
10.07.2015 20:00 20,4 C 45 % 1017,9 hPa 0,0 l/m 0,0 km/h (0 Bft) N 0,00 h 0,000 mm 0,0 UV-I 6 W/m 8,0 C 20,4 C 0,0 km/h (0 Bft) 0,00 %
10.07.2015 21:00 15,9 C 59 % 1018,9 hPa 0,0 l/m 0,0 km/h (0 Bft) N 0,00 h 0,000 mm 0,0 UV-I 0 W/m 8,0 C 15,9 C 0,0 km/h (0 Bft) 0,00 %
10.07.2015 22:00 14,1 C 68 % 1019,5 hPa 0,0 l/m 0,0 km/h (0 Bft) N 0,00 h 0,000 mm 0,0 UV-I 0 W/m 8,1 C 14,1 C 0,0 km/h (0 Bft) 0,00 %
10.07.2015 23:00 12,8 C 76 % 1019,8 hPa 0,0 l/m 0,0 km/h (0 Bft) N 0,00 h 0,000 mm 0,0 UV-I 0 W/m 8,7 C 12,8 C 0,0 km/h (0 Bft) 0,00 %
11.07.2015 00:00 12,1 C 80 % 1019,9 hPa 0,0 l/m 0,0 km/h (0 Bft) N 0,00 h 0,000 mm 0,0 UV-I 0 W/m 8,7 C 12,1 C 0,0 km/h (0 Bft) 0,00 %
11.07.2015 01:00 10,4 C 86 % 1019,6 hPa 0,0 l/m 0,0 km/h (0 Bft) N 0,00 h 0,000 mm 0,0 UV-I 0 W/m 8,1 C 10,4 C 0,0 km/h (0 Bft) 0,00 %
11.07.2015 02:00 9,4 C 92 % 1019,6 hPa 0,0 l/m 0,0 km/h (0 Bft) N 0,00 h 0,000 mm 0,0 UV-I 0 W/m 8,0 C 9,4 C 0,0 km/h (0 Bft) 0,00 %
11.07.2015 03:00 9,5 C 92 % 1019,4 hPa 0,0 l/m 0,0 km/h (0 Bft) N 0,00 h 0,000 mm 0,0 UV-I 0 W/m 8,2 C 9,5 C 0,0 km/h (0 Bft) 0,00 %
11.07.2015 04:00 9,1 C 92 % 1019,4 hPa 0,0 l/m 0,0 km/h (0 Bft) N 0,00 h 0,000 mm 0,0 UV-I 0 W/m 7,8 C 9,1 C 0,0 km/h (0 Bft) 0,00 %
11.07.2015 05:00 8,6 C 92 % 1019,1 hPa 0,0 l/m 0,0 km/h (0 Bft) N 0,00 h 0,000 mm 0,0 UV-I 18 W/m 7,4 C 8,6 C 0,0 km/h (0 Bft) 0,00 %
11.07.2015 06:00 12,1 C 74 % 1018,4 hPa 0,0 l/m 0,3 km/h (0 Bft) O 0,92 h 0,000 mm 1,0 UV-I 232 W/m 7,6 C 12,1 C 0,7 km/h (0 Bft) 0,00 %
11.07.2015 07:00 14,4 C 61 % 1018,1 hPa 0,0 l/m 2,0 km/h (1 Bft) O-NO 1,00 h 0,000 mm 1,0 UV-I 393 W/m 7,0 C 14,4 C 4,6 km/h (1 Bft) 0,00 %
11.07.2015 08:00 16,6 C 51 % 1017,9 hPa 0,0 l/m 2,5 km/h (1 Bft) O 1,00 h 0,000 mm 1,6 UV-I 446 W/m 6,5 C 16,4 C 5,0 km/h (1 Bft) 0,00 %
11.07.2015 09:00 19,1 C 45 % 1017,3 hPa 0,0 l/m 2,7 km/h (1 Bft) NO 1,00 h 0,000 mm 2,4 UV-I 542 W/m 6,9 C 19,0 C 5,6 km/h (1 Bft) 0,00 %
11.07.2015 10:00 21,1 C 41 % 1016,6 hPa 0,0 l/m 1,9 km/h (1 Bft) N-NO 1,00 h 0,000 mm 3,5 UV-I 665 W/m 7,3 C 21,0 C 4,0 km/h (1 Bft) 0,00 %
11.07.2015 11:00 23,4 C 37 % 1016,1 hPa 0,0 l/m 1,4 km/h (1 Bft) O-SO 1,00 h 0,000 mm 5,0 UV-I 764 W/m 7,9 C 23,3 C 2,6 km/h (1 Bft) 0,00 %
11.07.2015 12:00 24,1 C 36 % 1015,6 hPa 0,0 l/m 1,3 km/h (1 Bft) N-NO 1,00 h 0,000 mm 5,6 UV-I 836 W/m 8,1 C 24,1 C 2,7 km/h (1 Bft) 0,00 %
11.07.2015 13:00 25,2 C 34 % 1014,6 hPa 0,0 l/m 0,6 km/h (0 Bft) N-NW 1,00 h 0,000 mm 5,5 UV-I 957 W/m 8,0 C 25,2 C 1,0 km/h (0 Bft) 0,00 %
11.07.2015 14:00 27,0 C 32 % 1013,6 hPa 0,0 l/m 0,6 km/h (0 Bft) O-SO 0,92 h 0,000 mm 3,8 UV-I 718 W/m 8,8 C 27,0 C 1,7 km/h (1 Bft) 0,00 %
11.07.2015 15:00 26,6 C 33 % 1013,2 hPa 0,0 l/m 1,0 km/h (0 Bft) W-NW 1,00 h 0,000 mm 3,3 UV-I 793 W/m 9,2 C 26,6 C 2,3 km/h (1 Bft) 0,00 %
11.07.2015 16:00 28,1 C 33 % 1012,5 hPa 0,0 l/m 1,9 km/h (1 Bft) N-NW 1,00 h 0,000 mm 2,7 UV-I 841 W/m 10,5 C 28,1 C 3,3 km/h (1 Bft) 0,00 %
11.07.2015 17:00 28,2 C 34 % 1011,7 hPa 0,0 l/m 0,9 km/h (0 Bft) N-NW 1,00 h 0,000 mm 1,6 UV-I 734 W/m 10,7 C 28,2 C 1,7 km/h (1 Bft) 0,00 %
11.07.2015 18:00 27,7 C 37 % 1011,6 hPa 0,0 l/m 1,1 km/h (1 Bft) N-NW 1,00 h 0,000 mm 1,0 UV-I 458 W/m 11,5 C 27,7 C 3,0 km/h (1 Bft) 0,00 %
11.07.2015 19:00 26,9 C 39 % 1011,9 hPa 0,0 l/m 0,0 km/h (0 Bft) N 0,58 h 0,000 mm 1,0 UV-I 146 W/m 11,8 C 26,9 C 0,0 km/h (0 Bft) 0,00 %
11.07.2015 20:00 24,5 C 49 % 1013,1 hPa 0,0 l/m 0,0 km/h (0 Bft) N 0,00 h 0,000 mm 0,0 UV-I 12 W/m 12,8 C 24,5 C 0,0 km/h (0 Bft) 0,00 %
11.07.2015 21:00 21,2 C 62 % 1014,6 hPa 0,0 l/m 0,3 km/h (0 Bft) N 0,00 h 0,000 mm 0,0 UV-I 0 W/m 13,5 C 21,2 C 1,7 km/h (1 Bft) 0,00 %
11.07.2015 22:00 19,2 C 67 % 1014,9 hPa 0,0 l/m 0,2 km/h (0 Bft) NW 0,00 h 0,000 mm 0,0 UV-I 0 W/m 13,0 C 19,2 C 0,3 km/h (0 Bft) 0,00 %
11.07.2015 23:00 18,3 C 69 % 1015,2 hPa 0,0 l/m 0,0 km/h (0 Bft) N 0,00 h 0,000 mm 0,0 UV-I 0 W/m 12,5 C 18,3 C 0,4 km/h (0 Bft) 0,00 %
12.07.2015 00:00 17,3 C 74 % 1015,4 hPa 0,0 l/m 0,1 km/h (0 Bft) N 0,00 h 0,000 mm 0,0 UV-I 0 W/m 12,6 C 17,3 C 0,7 km/h (0 Bft) 0,00 %
12.07.2015 01:00 16,2 C 80 % 1015,6 hPa 0,0 l/m 0,0 km/h (0 Bft) N 0,00 h 0,000 mm 0,0 UV-I 0 W/m 12,7 C 16,2 C 0,0 km/h (0 Bft) 0,00 %
12.07.2015 02:00 16,3 C 79 % 1015,3 hPa 0,0 l/m 0,5 km/h (0 Bft) W-SW 0,00 h 0,000 mm 0,0 UV-I 0 W/m 12,7 C 16,3 C 1,0 km/h (0 Bft) 0,00 %
12.07.2015 03:00 16,6 C 79 % 1015,3 hPa 0,0 l/m 1,0 km/h (0 Bft) W-NW 0,00 h 0,000 mm 0,0 UV-I 0 W/m 12,8 C 16,6 C 2,7 km/h (1 Bft) 0,00 %
12.07.2015 04:00 15,4 C 84 % 1015,7 hPa 0,0 l/m 0,0 km/h (0 Bft) N 0,00 h 0,000 mm 0,0 UV-I 0 W/m 12,7 C 15,4 C 0,0 km/h (0 Bft) 0,00 %
12.07.2015 05:00 15,2 C 85 % 1016,0 hPa 0,0 l/m 0,0 km/h (0 Bft) N 0,00 h 0,000 mm 0,0 UV-I 13 W/m 12,7 C 15,2 C 0,0 km/h (0 Bft) 0,00 %
12.07.2015 06:00 17,4 C 76 % 1015,7 hPa 0,0 l/m 0,0 km/h (0 Bft) N 0,58 h 0,000 mm 1,0 UV-I 130 W/m 13,1 C 17,4 C 0,0 km/h (0 Bft) 0,00 %
12.07.2015 07:00 20,4 C 66 % 1015,6 hPa 0,0 l/m 0,0 km/h (0 Bft) N 0,75 h 0,000 mm 1,0 UV-I 261 W/m 13,8 C 20,4 C 0,0 km/h (0 Bft) 0,00 %
12.07.2015 08:00 22,4 C 58 % 1015,4 hPa 0,0 l/m 0,7 km/h (0 Bft) W-SW 0,83 h 0,000 mm 1,5 UV-I 415 W/m 13,8 C 22,4 C 1,7 km/h (1 Bft) 0,00 %
12.07.2015 09:00 24,6 C 50 % 1015,1 hPa 0,0 l/m 1,8 km/h (1 Bft) W 1,00 h 0,000 mm 2,1 UV-I 558 W/m 13,3 C 24,5 C 4,3 km/h (1 Bft) 0,00 %
12.07.2015 10:00 26,4 C 42 % 1014,6 hPa 0,0 l/m 2,5 km/h (1 Bft) O 1,00 h 0,000 mm 3,2 UV-I 668 W/m 12,5 C 26,4 C 4,0 km/h (1 Bft) 0,00 %
12.07.2015 11:00 28,1 C 36 % 1014,0 hPa 0,0 l/m 4,1 km/h (1 Bft) W-SW 0,83 h 0,000 mm 4,3 UV-I 694 W/m 11,5 C 28,0 C 7,6 km/h (2 Bft) 0,00 %
12.07.2015 12:00 28,0 C 34 % 1013,8 hPa 0,0 l/m 4,1 km/h (1 Bft) W 0,92 h 0,000 mm 4,5 UV-I 770 W/m 10,4 C 27,9 C 6,6 km/h (2 Bft) 0,00 %
12.07.2015 13:00 29,2 C 32 % 1013,4 hPa 0,0 l/m 4,6 km/h (1 Bft) W-SW 1,00 h 0,000 mm 4,7 UV-I 916 W/m 10,6 C 29,1 C 8,6 km/h (2 Bft) 0,00 %
12.07.2015 14:00 29,4 C 31 % 1012,8 hPa 0,0 l/m 4,5 km/h (1 Bft) N-NW 0,92 h 0,000 mm 4,1 UV-I 851 W/m 10,2 C 29,3 C 7,9 km/h (2 Bft) 0,00 %
12.07.2015 15:00 29,7 C 31 % 1012,4 hPa 0,0 l/m 2,5 km/h (1 Bft) NO 1,00 h 0,000 mm 3,4 UV-I 860 W/m 10,6 C 29,6 C 5,3 km/h (1 Bft) 0,00 %
12.07.2015 16:00 29,9 C 30 % 1011,6 hPa 0,0 l/m 3,6 km/h (1 Bft) SW 1,00 h 0,000 mm 2,7 UV-I 563 W/m 10,4 C 29,8 C 6,6 km/h (2 Bft) 0,00 %
12.07.2015 17:00 29,1 C 31 % 1011,3 hPa 0,0 l/m 1,7 km/h (1 Bft) NO 1,00 h 0,000 mm 1,6 UV-I 553 W/m 10,3 C 29,1 C 4,0 km/h (1 Bft) 0,00 %
12.07.2015 18:00 29,0 C 31 % 1010,9 hPa 0,0 l/m 1,5 km/h (1 Bft) W 0,67 h 0,000 mm 1,0 UV-I 278 W/m 10,2 C 29,0 C 3,6 km/h (1 Bft) 0,00 %
12.07.2015 19:00 27,9 C 35 % 1010,8 hPa 0,0 l/m 0,4 km/h (0 Bft) W 0,00 h 0,000 mm 1,0 UV-I 39 W/m 10,8 C 27,9 C 1,0 km/h (0 Bft) 0,00 %
12.07.2015 20:00 24,8 C 43 % 1011,3 hPa 0,0 l/m 0,1 km/h (0 Bft) N 0,00 h 0,000 mm 0,0 UV-I 2 W/m 11,4 C 24,8 C 0,3 km/h (0 Bft) 0,00 %
12.07.2015 21:00 22,1 C 53 % 1012,3 hPa 0,0 l/m 0,0 km/h (0 Bft) N 0,00 h 0,000 mm 0,0 UV-I 0 W/m 12,2 C 22,1 C 0,3 km/h (0 Bft) 0,00 %
12.07.2015 22:00 21,4 C 52 % 1012,9 hPa 0,0 l/m 0,2 km/h (0 Bft) W 0,00 h 0,000 mm 0,0 UV-I 0 W/m 11,0 C 21,4 C 0,7 km/h (0 Bft) 0,00 %
12.07.2015 23:00 20,6 C 55 % 1013,3 hPa 0,0 l/m 0,3 km/h (0 Bft) NW 0,00 h 0,000 mm 0,0 UV-I 0 W/m 11,1 C 20,6 C 0,7 km/h (0 Bft) 0,00 %
Min-Datum _ 11.07.15 12.07.15 08.07.15 - 06.07.15 - - - - - 10.07.15 11.07.15 06.07.15 06.07.15
_ Min-Zeit 05:25 15:05 00:00 - 00:00 - - - - - 18:00 05:25 00:00 00:00
Minimum _ 8,4 C 28 % 1002,7 hPa - 0,0 km/h (0 Bft) - - - - - 5,4 C 8,4 C 0,0 km/h (0 Bft) 0,00 %
Max-Datum _ 07.07.15 07.07.15 10.07.15 08.07.15 09.07.15 - 06.07.15 06.07.15 07.07.15 11.07.15 07.07.15 07.07.15 06.07.15 06.07.15
_ Max-Zeit 15:25 05:00 02:35 15:25 16:00 - 06:00 00:00 12:40 13:20 21:25 15:25 07:55 00:00
Maximum _ 34,5 C 94 % 1023,0 hPa 2,4 l/m 18,4 km/h
W-SW (3 Bft)
- 0,08 h 0,000 mm 6,0 UV-I 1147 W/m 21,0 C 34,5 C 24,1 km/h
W-NW (4 Bft)
0,00 %
Durchschnitt _ 21,0 C 63 % 1014,6 hPa #4,5 l/m 1,6 km/h (1 Bft) W-SW #70:45 h #0,000 mm 2,4 UV-I 428 W/m 12,8 C 20,9 C 3,0 km/h (1 Bft) 0,00 %